createdAt,value
2023-07-25T00:00:48.640Z,99492.44
2023-07-25T00:01:50.632Z,99495.94
2023-07-25T00:02:52.633Z,99491.25
2023-07-25T00:03:54.651Z,99493.66
2023-07-25T00:04:56.588Z,99499.47
2023-07-25T00:05:58.911Z,99493.69
2023-07-25T00:07:00.823Z,99487.78
2023-07-25T00:08:03.146Z,99496.16
2023-07-25T00:09:05.462Z,99489.50
2023-07-25T00:10:08.968Z,99489.09
2023-07-25T00:11:15.128Z,99490.16
2023-07-25T00:12:17.017Z,99488.78
2023-07-25T00:13:19.087Z,99491.44
2023-07-25T00:14:21.283Z,99500.44
2023-07-25T00:15:23.285Z,99492.53
2023-07-25T00:16:25.270Z,99493.47
2023-07-25T00:17:27.245Z,99494.69
2023-07-25T00:18:29.110Z,99495.75
2023-07-25T00:19:31.238Z,99502.78
2023-07-25T00:20:33.211Z,99499.47
2023-07-25T00:21:35.535Z,99501.00
2023-07-25T00:22:37.553Z,99499.38
2023-07-25T00:23:39.543Z,99509.44
2023-07-25T00:24:41.659Z,99506.00
2023-07-25T00:25:43.672Z,99506.19
2023-07-25T00:26:45.739Z,99509.97
2023-07-25T00:27:47.745Z,99505.69
2023-07-25T00:28:49.639Z,99503.88
2023-07-25T00:29:54.835Z,99501.28
2023-07-25T00:30:56.665Z,99495.47
2023-07-25T00:31:58.723Z,99507.31
2023-07-25T00:33:00.552Z,99510.69
2023-07-25T00:34:02.647Z,99504.41
2023-07-25T00:35:05.027Z,99501.06
2023-07-25T00:36:07.453Z,99503.31
2023-07-25T00:37:09.428Z,99506.97
2023-07-25T00:38:11.450Z,99502.16
2023-07-25T00:39:13.493Z,99498.06
2023-07-25T00:40:15.375Z,99498.16
2023-07-25T00:41:17.226Z,99502.09
2023-07-25T00:44:13.773Z,99507.63
2023-07-25T00:45:15.965Z,99509.59
2023-07-25T00:46:18.420Z,99504.84
2023-07-25T00:47:22.584Z,99512.56
2023-07-25T00:48:24.700Z,99505.31
2023-07-25T00:49:27.469Z,99505.34
2023-07-25T00:50:30.718Z,99508.03
2023-07-25T00:51:33.886Z,99510.28
2023-07-25T00:52:36.377Z,99507.50
2023-07-25T00:53:38.743Z,99510.38
2023-07-25T00:54:46.670Z,99510.72
2023-07-25T00:55:49.625Z,99513.41
2023-07-25T00:56:51.715Z,99507.28
2023-07-25T00:57:53.900Z,99513.41
2023-07-25T00:58:56.337Z,99513.59
2023-07-25T00:59:58.427Z,99514.00
2023-07-25T01:01:05.311Z,99513.50
2023-07-25T01:02:07.459Z,99513.06
2023-07-25T01:03:09.646Z,99510.78
2023-07-25T01:04:11.916Z,99512.81
2023-07-25T01:05:14.037Z,99512.34
2023-07-25T01:06:18.631Z,99516.09
2023-07-25T01:07:20.723Z,99516.19
2023-07-25T01:08:22.701Z,99509.97
2023-07-25T01:09:42.362Z,99518.25
2023-07-25T01:10:44.529Z,99514.00
2023-07-25T01:11:46.637Z,99509.09
2023-07-25T01:12:48.666Z,99519.28
2023-07-25T01:13:51.833Z,99520.56
2023-07-25T01:14:54.052Z,99519.94
2023-07-25T01:15:57.670Z,99513.16
2023-07-25T01:17:21.765Z,99520.22
2023-07-25T01:18:23.777Z,99515.66
2023-07-25T01:19:30.264Z,99521.22
2023-07-25T01:20:35.205Z,99521.53
2023-07-25T01:21:37.848Z,99529.13
2023-07-25T01:22:40.346Z,99518.66
2023-07-25T01:23:44.132Z,99527.66
2023-07-25T01:24:48.347Z,99524.41
2023-07-25T01:25:50.590Z,99523.69
2023-07-25T01:26:52.668Z,99521.09
2023-07-25T01:27:54.707Z,99520.34
2023-07-25T01:28:56.658Z,99526.75
2023-07-25T01:29:58.731Z,99526.19
2023-07-25T01:31:01.007Z,99527.41
2023-07-25T01:32:03.179Z,99529.53
2023-07-25T01:33:05.851Z,99524.72
2023-07-25T01:34:07.897Z,99518.00
2023-07-25T01:35:09.932Z,99527.22
2023-07-25T01:36:11.964Z,99524.66
2023-07-25T01:37:14.045Z,99531.06
2023-07-25T01:38:16.298Z,99522.47
2023-07-25T01:39:18.401Z,99522.88
2023-07-25T01:40:20.400Z,99527.69
2023-07-25T01:41:22.444Z,99528.88
2023-07-25T01:42:24.586Z,99519.84
2023-07-25T01:43:26.753Z,99534.22
2023-07-25T01:44:28.844Z,99526.94
2023-07-25T01:45:30.946Z,99526.59
2023-07-25T01:46:33.013Z,99527.00
2023-07-25T01:47:35.320Z,99526.06
2023-07-25T01:48:37.469Z,99528.09
2023-07-25T01:49:39.639Z,99531.94
2023-07-25T01:50:41.651Z,99531.81
2023-07-25T01:51:44.381Z,99530.16
2023-07-25T01:52:46.421Z,99537.66
2023-07-25T01:53:48.732Z,99537.56
2023-07-25T01:54:51.255Z,99527.69
2023-07-25T01:55:53.382Z,99534.75
2023-07-25T01:56:55.437Z,99542.03
2023-07-25T01:57:57.359Z,99549.56
2023-07-25T01:58:59.575Z,99542.72
2023-07-25T02:00:01.760Z,99542.09
2023-07-25T02:01:06.973Z,99544.91
2023-07-25T02:02:09.204Z,99548.53
2023-07-25T02:03:12.374Z,99544.22
2023-07-25T02:04:14.636Z,99550.47
2023-07-25T02:05:16.717Z,99549.59
2023-07-25T02:06:18.866Z,99554.84
2023-07-25T02:07:21.090Z,99562.91
2023-07-25T02:08:23.185Z,99560.75
2023-07-25T02:09:25.283Z,99562.09
2023-07-25T02:10:29.164Z,99565.22
2023-07-25T02:11:31.608Z,99554.03
2023-07-25T02:12:33.925Z,99560.63
2023-07-25T02:13:36.123Z,99560.63
2023-07-25T02:14:38.206Z,99565.78
2023-07-25T02:15:40.250Z,99550.22
2023-07-25T02:16:42.239Z,99558.03
2023-07-25T02:17:44.476Z,99554.13
2023-07-25T02:18:47.559Z,99557.34
2023-07-25T02:19:49.702Z,99556.03
2023-07-25T02:20:51.884Z,99556.44
2023-07-25T02:21:53.876Z,99561.94
2023-07-25T02:22:56.040Z,99563.09
2023-07-25T02:23:58.019Z,99561.66
2023-07-25T02:25:00.097Z,99565.72
2023-07-25T02:26:02.254Z,99560.94
2023-07-25T02:27:04.794Z,99564.13
2023-07-25T02:28:06.960Z,99560.25
2023-07-25T02:29:09.027Z,99559.16
2023-07-25T02:30:11.894Z,99560.50
2023-07-25T02:31:14.207Z,99560.13
2023-07-25T02:32:16.206Z,99556.22
2023-07-25T02:33:18.315Z,99562.94
2023-07-25T02:34:20.347Z,99557.47
2023-07-25T02:35:22.479Z,99562.94
2023-07-25T02:36:24.419Z,99566.47
2023-07-25T02:37:26.596Z,99561.25
2023-07-25T02:38:28.675Z,99561.34
2023-07-25T02:39:30.830Z,99563.31
2023-07-25T02:40:32.885Z,99567.84
2023-07-25T02:41:34.919Z,99563.94
2023-07-25T02:42:36.979Z,99571.50
2023-07-25T02:43:39.236Z,99568.69
2023-07-25T02:44:41.218Z,99558.75
2023-07-25T02:45:43.395Z,99562.03
2023-07-25T02:46:45.431Z,99566.41
2023-07-25T02:47:47.669Z,99557.78
2023-07-25T02:48:49.744Z,99559.47
2023-07-25T02:49:51.867Z,99558.50
2023-07-25T02:50:53.902Z,99558.25
2023-07-25T02:51:56.099Z,99556.25
2023-07-25T02:52:58.114Z,99558.25
2023-07-25T02:54:00.176Z,99558.50
2023-07-25T02:55:02.376Z,99557.72
2023-07-25T02:56:06.259Z,99556.28
2023-07-25T02:57:08.239Z,99566.47
2023-07-25T02:58:10.344Z,99566.47
2023-07-25T02:59:12.301Z,99558.38
2023-07-25T03:00:15.126Z,99563.31
2023-07-25T03:01:17.414Z,99557.38
2023-07-25T03:02:19.676Z,99556.06
2023-07-25T03:03:21.789Z,99556.34
2023-07-25T03:04:23.803Z,99554.38
2023-07-25T03:05:28.336Z,99548.84
2023-07-25T03:06:30.374Z,99546.56
2023-07-25T03:07:32.379Z,99549.69
2023-07-25T03:08:34.511Z,99555.47
2023-07-25T03:09:38.603Z,99557.31
2023-07-25T03:10:40.756Z,99557.53
2023-07-25T03:11:42.787Z,99563.91
2023-07-25T03:12:44.822Z,99562.03
2023-07-25T03:13:46.720Z,99562.53
2023-07-25T03:14:48.824Z,99564.75
2023-07-25T03:15:51.100Z,99562.72
2023-07-25T03:16:53.253Z,99565.06
2023-07-25T03:17:55.731Z,99566.84
2023-07-25T03:18:57.763Z,99565.53
2023-07-25T03:19:59.910Z,99572.34
2023-07-25T03:21:01.910Z,99567.91
2023-07-25T03:22:03.953Z,99571.59
2023-07-25T03:23:05.917Z,99578.00
2023-07-25T03:24:07.893Z,99572.44
2023-07-25T03:25:10.711Z,99575.03
2023-07-25T03:26:12.990Z,99576.13
2023-07-25T03:27:15.941Z,99584.34
2023-07-25T03:28:17.903Z,99586.34
2023-07-25T03:29:19.993Z,99589.72
2023-07-25T03:30:22.196Z,99585.81
2023-07-25T03:31:24.640Z,99589.19
2023-07-25T03:32:26.603Z,99577.19
2023-07-25T03:33:31.554Z,99575.09
2023-07-25T03:34:33.720Z,99577.63
2023-07-25T03:35:36.042Z,99576.50
2023-07-25T03:36:38.117Z,99577.47
2023-07-25T03:37:40.257Z,99573.69
2023-07-25T03:38:42.298Z,99579.84
2023-07-25T03:39:44.598Z,99581.84
2023-07-25T03:40:46.748Z,99578.78
2023-07-25T03:41:48.950Z,99578.03
2023-07-25T03:42:50.888Z,99577.31
2023-07-25T03:43:52.850Z,99579.03
2023-07-25T03:44:55.068Z,99580.88
2023-07-25T03:45:57.276Z,99581.19
2023-07-25T03:46:59.467Z,99582.50
2023-07-25T03:48:01.596Z,99575.94
2023-07-25T03:49:03.818Z,99575.94
2023-07-25T03:50:06.306Z,99582.63
2023-07-25T03:51:08.435Z,99581.41
2023-07-25T03:52:10.483Z,99578.00
2023-07-25T03:53:12.575Z,99577.16
2023-07-25T03:54:14.771Z,99590.09
2023-07-25T03:55:16.899Z,99582.44
2023-07-25T03:56:19.070Z,99581.22
2023-07-25T03:57:21.359Z,99578.25
2023-07-25T03:58:23.395Z,99579.81
2023-07-25T03:59:25.448Z,99583.66
2023-07-25T04:00:27.729Z,99584.91
2023-07-25T04:01:30.355Z,99585.78
2023-07-25T04:02:32.625Z,99588.22
2023-07-25T04:03:34.813Z,99587.66
2023-07-25T04:04:36.983Z,99580.69
2023-07-25T04:05:39.039Z,99577.84
2023-07-25T04:06:41.225Z,99579.09
2023-07-25T04:07:43.246Z,99587.81
2023-07-25T04:08:45.671Z,99577.00
2023-07-25T04:09:47.943Z,99582.09
2023-07-25T04:10:50.013Z,99580.81
2023-07-25T04:11:51.959Z,99582.38
2023-07-25T04:12:53.982Z,99582.38
2023-07-25T04:13:55.936Z,99569.00
2023-07-25T04:14:58.207Z,99566.47
2023-07-25T04:16:00.169Z,99565.56
2023-07-25T04:17:02.124Z,99558.38
2023-07-25T04:18:04.301Z,99558.78
2023-07-25T04:19:06.387Z,99563.88
2023-07-25T04:20:09.259Z,99560.00
2023-07-25T04:21:11.392Z,99556.94
2023-07-25T04:22:13.486Z,99559.47
2023-07-25T04:23:16.390Z,99563.56
2023-07-25T04:24:18.348Z,99561.38
2023-07-25T04:25:20.628Z,99560.69
2023-07-25T04:26:22.863Z,99561.50
2023-07-25T04:27:24.935Z,99566.78
2023-07-25T04:28:27.362Z,99563.56
2023-07-25T04:29:30.221Z,99569.72
2023-07-25T04:30:32.236Z,99567.03
2023-07-25T04:31:34.777Z,99568.88
2023-07-25T04:32:37.168Z,99568.88
2023-07-25T04:33:39.376Z,99568.34
2023-07-25T04:34:41.397Z,99570.66
2023-07-25T04:35:46.602Z,99563.00
2023-07-25T04:36:48.649Z,99565.31
2023-07-25T04:37:50.639Z,99570.50
2023-07-25T04:38:52.680Z,99563.72
2023-07-25T04:39:54.709Z,99564.00
2023-07-25T04:40:58.364Z,99558.28
2023-07-25T04:42:00.304Z,99568.34
2023-07-25T04:43:02.256Z,99566.47
2023-07-25T04:44:04.596Z,99565.72
2023-07-25T04:45:07.098Z,99567.72
2023-07-25T04:46:09.253Z,99564.25
2023-07-25T04:47:11.232Z,99560.81
2023-07-25T04:48:13.390Z,99559.75
2023-07-25T04:49:15.643Z,99568.00
2023-07-25T04:50:17.743Z,99563.44
2023-07-25T04:51:19.958Z,99562.28
2023-07-25T04:52:22.180Z,99557.72
2023-07-25T04:53:24.187Z,99565.81
2023-07-25T04:54:26.169Z,99559.41
2023-07-25T04:55:28.201Z,99566.44
2023-07-25T04:56:30.320Z,99560.44
2023-07-25T04:57:32.394Z,99566.34
2023-07-25T04:58:35.289Z,99560.47
2023-07-25T04:59:37.295Z,99567.94
2023-07-25T05:00:39.395Z,99563.59
2023-07-25T05:01:41.390Z,99566.91
2023-07-25T05:02:43.399Z,99567.97
2023-07-25T05:03:45.531Z,99569.13
2023-07-25T05:04:48.206Z,99558.66
2023-07-25T05:05:53.083Z,99568.69
2023-07-25T05:06:55.621Z,99565.31
2023-07-25T05:07:57.612Z,99558.78
2023-07-25T05:08:59.671Z,99564.44
2023-07-25T05:10:01.810Z,99565.09
2023-07-25T05:11:06.415Z,99558.25
2023-07-25T05:12:13.226Z,99555.72
2023-07-25T05:13:15.253Z,99557.84
2023-07-25T05:14:17.188Z,99556.47
2023-07-25T05:15:19.262Z,99552.72
2023-07-25T05:16:21.426Z,99552.09
2023-07-25T05:17:23.516Z,99544.28
2023-07-25T05:18:25.589Z,99543.03
2023-07-25T05:19:27.876Z,99553.94
2023-07-25T05:20:29.985Z,99546.91
2023-07-25T05:21:32.345Z,99540.22
2023-07-25T05:22:34.547Z,99541.56
2023-07-25T05:23:36.639Z,99545.94
2023-07-25T05:24:38.750Z,99540.47
2023-07-25T05:25:40.929Z,99540.47
2023-07-25T05:26:42.988Z,99542.72
2023-07-25T05:27:45.157Z,99547.13
2023-07-25T05:28:47.138Z,99554.78
2023-07-25T05:29:49.394Z,99543.09
2023-07-25T05:30:51.375Z,99542.78
2023-07-25T05:31:53.616Z,99544.19
2023-07-25T05:32:55.778Z,99544.69
2023-07-25T05:33:58.148Z,99546.09
2023-07-25T05:35:00.139Z,99540.66
2023-07-25T05:36:05.855Z,99536.75
2023-07-25T05:37:07.903Z,99529.81
2023-07-25T05:38:10.063Z,99544.38
2023-07-25T05:39:12.153Z,99543.84
2023-07-25T05:40:14.221Z,99543.00
2023-07-25T05:41:16.286Z,99538.53
2023-07-25T05:42:18.564Z,99543.88
2023-07-25T05:43:20.569Z,99536.38
2023-07-25T05:44:22.647Z,99544.31
2023-07-25T05:45:25.008Z,99541.41
2023-07-25T05:46:27.334Z,99540.31
2023-07-25T05:47:30.132Z,99537.22
2023-07-25T05:48:32.420Z,99540.47
2023-07-25T05:49:34.720Z,99538.31
2023-07-25T05:50:36.795Z,99537.13
2023-07-25T05:51:38.866Z,99544.09
2023-07-25T05:52:41.032Z,99537.03
2023-07-25T05:53:43.268Z,99542.44
2023-07-25T05:54:45.703Z,99538.25
2023-07-25T05:55:47.976Z,99536.00
2023-07-25T05:56:50.188Z,99539.03
2023-07-25T05:57:52.363Z,99535.34
2023-07-25T05:58:54.411Z,99540.69
2023-07-25T05:59:56.469Z,99547.81
2023-07-25T06:00:58.728Z,99543.22
2023-07-25T06:02:00.749Z,99543.56
2023-07-25T06:03:03.116Z,99541.69
2023-07-25T06:04:05.454Z,99543.72
2023-07-25T06:05:08.304Z,99543.56
2023-07-25T06:06:10.256Z,99543.41
2023-07-25T06:07:12.288Z,99537.50
2023-07-25T06:08:14.352Z,99538.19
2023-07-25T06:09:16.831Z,99539.25
2023-07-25T06:10:18.806Z,99540.16
2023-07-25T06:11:22.604Z,99530.06
2023-07-25T06:12:26.889Z,99528.63
2023-07-25T06:13:29.012Z,99529.19
2023-07-25T06:14:31.123Z,99531.47
2023-07-25T06:15:37.804Z,99535.91
2023-07-25T06:16:40.046Z,99533.75
2023-07-25T06:17:42.215Z,99533.09
2023-07-25T06:18:44.409Z,99531.97
2023-07-25T06:19:48.759Z,99534.19
2023-07-25T06:20:51.460Z,99532.19
2023-07-25T06:21:53.527Z,99524.91
2023-07-25T06:22:55.720Z,99531.34
2023-07-25T06:23:57.778Z,99528.78
2023-07-25T06:24:59.833Z,99525.38
2023-07-25T06:26:02.070Z,99525.09
2023-07-25T06:27:05.419Z,99525.75
2023-07-25T06:28:07.891Z,99528.97
2023-07-25T06:29:10.277Z,99528.97
2023-07-25T06:30:12.631Z,99528.09
2023-07-25T06:31:14.887Z,99522.66
2023-07-25T06:32:17.300Z,99522.34
2023-07-25T06:33:19.420Z,99522.50
2023-07-25T06:34:21.464Z,99526.94
2023-07-25T06:35:23.673Z,99530.81
2023-07-25T06:36:26.226Z,99529.47
2023-07-25T06:37:28.236Z,99535.25
2023-07-25T06:38:30.404Z,99518.59
2023-07-25T06:39:32.469Z,99519.81
2023-07-25T06:40:34.604Z,99530.31
2023-07-25T06:41:36.820Z,99522.88
2023-07-25T06:42:39.009Z,99519.28
2023-07-25T06:43:41.125Z,99526.09
2023-07-25T06:44:43.230Z,99527.44
2023-07-25T06:45:45.832Z,99524.72
2023-07-25T06:46:48.436Z,99521.09
2023-07-25T06:47:50.562Z,99520.25
2023-07-25T06:48:53.759Z,99519.84
2023-07-25T06:49:55.991Z,99521.22
2023-07-25T06:50:58.176Z,99507.59
2023-07-25T06:52:01.622Z,99510.69
2023-07-25T06:53:04.590Z,99519.19
2023-07-25T06:54:06.661Z,99517.72
2023-07-25T06:55:10.268Z,99512.50
2023-07-25T06:56:13.039Z,99514.69
2023-07-25T06:57:15.289Z,99512.50
2023-07-25T06:58:17.255Z,99516.59
2023-07-25T06:59:19.748Z,99514.38
2023-07-25T07:00:23.000Z,99515.06
2023-07-25T07:01:29.516Z,99518.47
2023-07-25T07:02:32.116Z,99518.28
2023-07-25T07:03:34.327Z,99513.84
2023-07-25T07:04:36.526Z,99508.75
2023-07-25T07:05:41.090Z,99515.38
2023-07-25T07:06:43.280Z,99512.09
2023-07-25T07:07:45.340Z,99504.47
2023-07-25T07:08:47.390Z,99505.31
2023-07-25T07:09:50.200Z,99510.41
2023-07-25T07:10:56.113Z,99515.88
2023-07-25T07:11:58.340Z,99508.75
2023-07-25T07:13:01.145Z,99512.00
2023-07-25T07:14:03.385Z,99516.25
2023-07-25T07:15:06.089Z,99507.41
2023-07-25T07:16:10.441Z,99515.22
2023-07-25T07:17:12.752Z,99510.47
2023-07-25T07:18:15.119Z,99514.53
2023-07-25T07:19:17.208Z,99508.41
2023-07-25T07:20:19.625Z,99511.81
2023-07-25T07:21:21.716Z,99521.31
2023-07-25T07:22:25.258Z,99515.84
2023-07-25T07:23:27.310Z,99512.97
2023-07-25T07:24:29.953Z,99514.31
2023-07-25T07:25:32.016Z,99516.84
2023-07-25T07:26:34.172Z,99519.56
2023-07-25T07:27:36.273Z,99508.31
2023-07-25T07:28:38.515Z,99523.31
2023-07-25T07:29:40.546Z,99525.69
2023-07-25T07:30:42.789Z,99523.16
2023-07-25T07:31:44.903Z,99529.44
2023-07-25T07:32:47.937Z,99517.53
2023-07-25T07:33:50.214Z,99517.19
2023-07-25T07:34:52.333Z,99519.91
2023-07-25T07:35:54.499Z,99513.75
2023-07-25T07:36:56.658Z,99515.44
2023-07-25T07:37:59.059Z,99525.13
2023-07-25T07:39:01.142Z,99516.13
2023-07-25T07:40:04.814Z,99518.38
2023-07-25T07:41:07.000Z,99510.25
2023-07-25T07:42:09.412Z,99514.25
2023-07-25T07:43:11.560Z,99512.38
2023-07-25T07:44:13.779Z,99514.44
2023-07-25T07:45:16.025Z,99516.13
2023-07-25T07:46:18.188Z,99521.59
2023-07-25T07:47:20.332Z,99520.38
2023-07-25T07:48:22.384Z,99515.59
2023-07-25T07:49:24.430Z,99514.03
2023-07-25T07:50:29.639Z,99508.44
2023-07-25T07:51:32.241Z,99512.34
2023-07-25T07:52:43.742Z,99515.53
2023-07-25T07:53:46.245Z,99515.00
2023-07-25T07:54:48.495Z,99509.25
2023-07-25T07:55:50.682Z,99507.59
2023-07-25T07:56:52.752Z,99507.44
2023-07-25T07:57:54.979Z,99505.06
2023-07-25T07:58:57.093Z,99507.28
2023-07-25T07:59:59.552Z,99502.03
2023-07-25T08:01:01.611Z,99499.47
2023-07-25T08:02:03.995Z,99503.38
2023-07-25T08:03:06.417Z,99503.56
2023-07-25T08:04:08.773Z,99496.91
2023-07-25T08:05:12.833Z,99495.06
2023-07-25T08:06:15.596Z,99494.38
2023-07-25T08:07:17.968Z,99491.97
2023-07-25T08:08:20.017Z,99490.59
2023-07-25T08:09:22.170Z,99491.97
2023-07-25T08:10:26.456Z,99490.94
2023-07-25T08:11:28.506Z,99491.28
2023-07-25T08:12:31.111Z,99496.00
2023-07-25T08:13:33.339Z,99488.81
2023-07-25T08:14:35.399Z,99489.09
2023-07-25T08:15:37.541Z,99495.47
2023-07-25T08:16:40.394Z,99493.41
2023-07-25T08:17:42.628Z,99488.31
2023-07-25T08:18:44.676Z,99483.75
2023-07-25T08:19:46.616Z,99489.31
2023-07-25T08:20:48.757Z,99491.97
2023-07-25T08:21:54.261Z,99487.75
2023-07-25T08:22:56.493Z,99494.03
2023-07-25T08:23:58.609Z,99494.50
2023-07-25T08:25:00.920Z,99494.34
2023-07-25T08:26:03.269Z,99493.72
2023-07-25T08:27:05.808Z,99489.47
2023-07-25T08:28:08.183Z,99492.03
2023-07-25T08:29:11.809Z,99500.19
2023-07-25T08:30:14.096Z,99500.19
2023-07-25T08:31:16.215Z,99500.38
2023-07-25T08:32:18.457Z,99501.19
2023-07-25T08:33:21.174Z,99504.72
2023-07-25T08:34:23.276Z,99496.84
2023-07-25T08:35:25.418Z,99502.19
2023-07-25T08:36:27.510Z,99501.72
2023-07-25T08:37:29.667Z,99507.53
2023-07-25T08:38:31.744Z,99505.31
2023-07-25T08:39:35.143Z,99499.19
2023-07-25T08:40:37.191Z,99506.88
2023-07-25T08:41:51.113Z,99508.78
2023-07-25T08:42:59.077Z,99509.50
2023-07-25T08:44:04.289Z,99505.72
2023-07-25T08:45:10.757Z,99506.09
2023-07-25T08:46:15.944Z,99502.72
2023-07-25T08:47:28.299Z,99512.25
2023-07-25T08:48:33.144Z,99509.38
2023-07-25T08:49:37.402Z,99505.16
2023-07-25T08:50:42.121Z,99505.69
2023-07-25T08:51:47.950Z,99494.59
2023-07-25T08:52:53.188Z,99495.94
2023-07-25T08:54:06.930Z,99496.75
2023-07-25T08:55:09.559Z,99487.94
2023-07-25T08:56:12.052Z,99493.91
2023-07-25T08:57:15.178Z,99496.28
2023-07-25T08:58:17.600Z,99496.66
2023-07-25T08:59:20.430Z,99492.25
2023-07-25T09:00:23.271Z,99495.78
2023-07-25T09:01:26.578Z,99503.06
2023-07-25T09:02:29.579Z,99497.28
2023-07-25T09:03:33.130Z,99497.63
2023-07-25T09:04:36.910Z,99487.09
2023-07-25T09:05:38.898Z,99497.19
2023-07-25T09:06:41.080Z,99484.03
2023-07-25T09:07:43.191Z,99496.34
2023-07-25T09:08:45.209Z,99488.94
2023-07-25T09:09:47.739Z,99487.41
2023-07-25T09:10:50.446Z,99488.94
2023-07-25T09:11:52.997Z,99490.53
2023-07-25T09:12:55.770Z,99488.66
2023-07-25T09:13:57.953Z,99480.84
2023-07-25T09:15:00.286Z,99486.16
2023-07-25T09:16:02.323Z,99484.13
2023-07-25T09:17:07.851Z,99484.63
2023-07-25T09:18:09.915Z,99482.59
2023-07-25T09:19:13.018Z,99485.66
2023-07-25T09:20:15.735Z,99483.97
2023-07-25T09:21:17.887Z,99481.94
2023-07-25T09:22:31.404Z,99487.34
2023-07-25T09:23:33.348Z,99478.00
2023-07-25T09:24:39.778Z,99483.94
2023-07-25T09:25:42.248Z,99474.44
2023-07-25T09:26:52.195Z,99469.69
2023-07-25T09:27:55.215Z,99478.28
2023-07-25T09:29:00.860Z,99480.22
2023-07-25T09:30:13.085Z,99484.97
2023-07-25T09:31:15.184Z,99468.31
2023-07-25T09:32:26.437Z,99480.03
2023-07-25T09:33:29.879Z,99474.28
2023-07-25T09:34:31.897Z,99477.00
2023-07-25T09:35:34.376Z,99477.34
2023-07-25T09:36:36.485Z,99471.91
2023-07-25T09:37:38.951Z,99472.75
2023-07-25T09:38:55.745Z,99466.97
2023-07-25T09:39:58.359Z,99473.59
2023-07-25T09:41:04.187Z,99470.72
2023-07-25T09:42:08.822Z,99474.44
2023-07-25T09:43:21.567Z,99473.75
2023-07-25T09:44:23.674Z,99479.22
2023-07-25T09:45:25.820Z,99489.75
2023-07-25T09:46:27.905Z,99502.97
2023-07-25T09:47:30.066Z,99514.09
2023-07-25T09:48:34.109Z,99526.16
2023-07-25T09:49:36.184Z,99532.31
2023-07-25T09:50:38.391Z,99541.28
2023-07-25T09:51:57.348Z,99546.69
2023-07-25T09:53:02.989Z,99545.97
2023-07-25T09:54:07.192Z,99544.66
2023-07-25T09:55:10.447Z,99561.06
2023-07-25T09:56:12.844Z,99556.78
2023-07-25T09:57:14.906Z,99551.03
2023-07-25T09:58:17.131Z,99542.00
2023-07-25T09:59:19.421Z,99526.50
2023-07-25T10:00:22.154Z,99524.66
2023-07-25T10:01:25.783Z,99519.69
2023-07-25T10:02:27.956Z,99515.41
2023-07-25T10:03:31.243Z,99514.56
2023-07-25T10:04:39.929Z,99511.56
2023-07-25T10:05:46.287Z,99508.19
2023-07-25T10:06:49.119Z,99502.50
2023-07-25T10:07:54.780Z,99504.75
2023-07-25T10:08:58.852Z,99503.16
2023-07-25T10:10:02.074Z,99499.00
2023-07-25T10:11:04.637Z,99497.63
2023-07-25T10:12:08.379Z,99498.75
2023-07-25T10:13:10.676Z,99493.25
2023-07-25T10:14:12.849Z,99501.47
2023-07-25T10:15:16.857Z,99495.47
2023-07-25T10:16:21.304Z,99501.66
2023-07-25T10:17:25.740Z,99508.50
2023-07-25T10:18:29.034Z,99505.34
2023-07-25T10:19:49.734Z,99512.41
2023-07-25T10:20:53.863Z,99511.84
2023-07-25T10:21:56.350Z,99518.72
2023-07-25T10:23:12.777Z,99518.47
2023-07-25T10:24:15.308Z,99510.56
2023-07-25T10:25:22.528Z,99518.19
2023-07-25T10:26:25.283Z,99509.53
2023-07-25T10:27:28.041Z,99510.69
2023-07-25T10:28:30.092Z,99509.28
2023-07-25T10:29:47.384Z,99512.50
2023-07-25T10:30:50.252Z,99513.44
2023-07-25T10:31:53.147Z,99504.28
2023-07-25T10:32:59.789Z,99498.00
2023-07-25T10:34:04.634Z,99502.09
2023-07-25T10:35:07.348Z,99507.91
2023-07-25T10:36:25.418Z,99510.53
2023-07-25T10:37:30.479Z,99506.97
2023-07-25T10:38:38.078Z,99502.59
2023-07-25T10:39:40.244Z,99503.25
2023-07-25T10:40:56.541Z,99504.06
2023-07-25T10:42:00.698Z,99502.03
2023-07-25T10:43:07.430Z,99500.94
2023-07-25T10:44:10.132Z,99499.94
2023-07-25T10:45:31.004Z,99494.38
2023-07-25T10:46:35.160Z,99497.53
2023-07-25T10:47:45.158Z,99492.59
2023-07-25T10:48:47.971Z,99491.34
2023-07-25T10:49:56.874Z,99485.25
2023-07-25T10:51:00.224Z,99484.63
2023-07-25T10:52:04.100Z,99496.25
2023-07-25T10:53:21.775Z,99487.28
2023-07-25T10:54:28.527Z,99493.97
2023-07-25T10:55:30.586Z,99494.19
2023-07-25T10:56:32.582Z,99489.88
2023-07-25T10:57:34.694Z,99491.28
2023-07-25T10:59:01.659Z,99490.13
2023-07-25T11:00:10.185Z,99486.34
2023-07-25T11:01:38.227Z,99488.44
2023-07-25T11:02:44.323Z,99486.44
2023-07-25T11:03:46.663Z,99488.66
2023-07-25T11:04:48.800Z,99481.13
2023-07-25T11:05:50.786Z,99473.34
2023-07-25T11:06:54.818Z,99479.94
2023-07-25T11:07:58.835Z,99479.41
2023-07-25T11:09:01.691Z,99478.56
2023-07-25T11:10:04.850Z,99486.28
2023-07-25T11:11:08.654Z,99479.97
2023-07-25T11:12:11.579Z,99482.31
2023-07-25T11:13:13.968Z,99473.00
2023-07-25T11:14:19.028Z,99472.28
2023-07-25T11:15:32.134Z,99473.66
2023-07-25T11:16:43.952Z,99471.13
2023-07-25T11:17:47.258Z,99473.63
2023-07-25T11:18:52.843Z,99475.16
2023-07-25T11:19:55.135Z,99469.06
2023-07-25T11:21:08.470Z,99469.31
2023-07-25T11:22:12.169Z,99457.31
2023-07-25T11:23:14.643Z,99464.06
2023-07-25T11:24:16.726Z,99466.75
2023-07-25T11:25:19.819Z,99453.19
2023-07-25T11:26:23.913Z,99452.16
2023-07-25T11:27:26.020Z,99450.84
2023-07-25T11:28:28.142Z,99448.97
2023-07-25T11:29:30.378Z,99450.66
2023-07-25T11:30:32.591Z,99450.66
2023-07-25T11:31:37.426Z,99453.03
2023-07-25T11:32:40.494Z,99436.94
2023-07-25T11:33:43.228Z,99446.06
2023-07-25T11:34:50.723Z,99439.00
2023-07-25T11:35:56.976Z,99440.34
2023-07-25T11:36:59.175Z,99432.91
2023-07-25T11:38:03.810Z,99432.94
2023-07-25T11:39:07.010Z,99426.81
2023-07-25T11:40:29.295Z,99432.63
2023-07-25T11:41:31.509Z,99433.00
2023-07-25T11:42:33.737Z,99422.78
2023-07-25T11:43:35.903Z,99422.44
2023-07-25T11:44:37.984Z,99424.16
2023-07-25T11:45:40.742Z,99420.59
2023-07-25T11:46:46.241Z,99420.78
2023-07-25T11:47:51.581Z,99414.69
2023-07-25T11:48:54.532Z,99408.44
2023-07-25T11:50:05.867Z,99414.00
2023-07-25T11:51:12.780Z,99418.75
2023-07-25T11:52:15.170Z,99410.91
2023-07-25T11:53:19.217Z,99416.50
2023-07-25T11:54:21.540Z,99412.28
2023-07-25T11:55:24.056Z,99416.38
2023-07-25T11:56:26.358Z,99416.72
2023-07-25T11:57:28.576Z,99413.81
2023-07-25T11:58:30.532Z,99419.09
2023-07-25T11:59:39.578Z,99421.94
2023-07-25T12:00:42.370Z,99421.44
2023-07-25T12:01:44.683Z,99422.13
2023-07-25T12:02:47.663Z,99422.47
2023-07-25T12:03:50.635Z,99419.94
2023-07-25T12:04:52.873Z,99418.22
2023-07-25T12:05:59.673Z,99419.09
2023-07-25T12:07:01.841Z,99425.38
2023-07-25T12:08:04.321Z,99425.53
2023-07-25T12:09:06.866Z,99426.56
2023-07-25T12:10:09.034Z,99426.91
2023-07-25T12:11:16.107Z,99438.97
2023-07-25T12:12:18.663Z,99432.53
2023-07-25T12:13:20.681Z,99440.34
2023-07-25T12:14:23.525Z,99436.09
2023-07-25T12:15:45.974Z,99441.53
2023-07-25T12:16:47.965Z,99449.19
2023-07-25T12:17:50.828Z,99441.19
2023-07-25T12:18:54.676Z,99440.16
2023-07-25T12:19:57.681Z,99444.91
2023-07-25T12:21:00.964Z,99435.22
2023-07-25T12:22:09.282Z,99435.03
2023-07-25T12:23:11.388Z,99440.78
2023-07-25T12:24:16.656Z,99433.31
2023-07-25T12:25:20.100Z,99446.50